createdAt,value
2022-10-25T00:01:35.590Z,0.50
2022-10-25T00:03:37.351Z,0.73
2022-10-25T00:05:40.280Z,0.77
2022-10-25T00:07:42.120Z,0.60
2022-10-25T00:09:43.685Z,0.57
2022-10-25T00:11:45.288Z,0.70
2022-10-25T00:13:50.050Z,0.47
2022-10-25T00:15:51.751Z,0.60
2022-10-25T00:17:53.786Z,0.52
2022-10-25T00:19:55.373Z,0.90
2022-10-25T00:21:56.999Z,0.75
2022-10-25T00:23:58.718Z,0.50
2022-10-25T00:26:01.915Z,0.50
2022-10-25T00:28:03.539Z,0.45
2022-10-25T00:30:06.553Z,0.70
2022-10-25T00:32:08.206Z,0.88
2022-10-25T00:34:09.796Z,0.50
2022-10-25T00:36:14.217Z,0.55
2022-10-25T00:38:15.830Z,0.50
2022-10-25T00:40:18.554Z,0.80
2022-10-25T00:42:22.758Z,0.50
2022-10-25T00:44:55.417Z,0.82
2022-10-25T00:46:57.005Z,0.80
2022-10-25T00:49:19.522Z,0.57
2022-10-25T00:51:24.871Z,0.55
2022-10-25T00:53:34.216Z,0.75
2022-10-25T00:55:37.859Z,0.70
2022-10-25T00:57:45.547Z,0.60
2022-10-25T00:59:47.537Z,0.60
2022-10-25T01:01:50.022Z,0.57
2022-10-25T01:03:54.010Z,0.80
2022-10-25T01:05:55.918Z,0.80
2022-10-25T01:07:57.943Z,0.70
2022-10-25T01:09:59.533Z,0.73
2022-10-25T01:12:01.165Z,0.70
2022-10-25T01:14:02.720Z,0.60
2022-10-25T01:16:15.723Z,0.60
2022-10-25T01:18:23.050Z,0.60
2022-10-25T01:20:42.865Z,0.77
2022-10-25T01:22:50.484Z,0.75
2022-10-25T01:25:22.713Z,0.82
2022-10-25T01:27:43.139Z,1.10
2022-10-25T01:29:59.770Z,0.95
2022-10-25T01:32:06.191Z,0.55
2022-10-25T01:34:17.267Z,0.70
2022-10-25T01:36:57.689Z,0.73
2022-10-25T01:39:12.765Z,0.60
2022-10-25T01:41:52.681Z,0.70
2022-10-25T01:43:56.835Z,0.63
2022-10-25T01:46:26.315Z,0.68
2022-10-25T01:48:33.456Z,0.45
2022-10-25T01:50:36.666Z,1.35
2022-10-25T01:52:38.261Z,0.70
2022-10-25T01:54:39.883Z,0.52
2022-10-25T01:56:48.501Z,0.73
2022-10-25T01:58:57.640Z,0.68
2022-10-25T02:01:46.980Z,0.70
2022-10-25T02:03:50.292Z,0.63
2022-10-25T02:06:06.942Z,0.88
2022-10-25T02:08:29.078Z,0.60
2022-10-25T02:10:49.941Z,0.70
2022-10-25T02:12:54.225Z,1.05
2022-10-25T02:15:10.149Z,0.73
2022-10-25T02:17:19.150Z,0.80
2022-10-25T02:19:25.007Z,0.70
2022-10-25T02:21:28.130Z,0.60
2022-10-25T02:23:30.262Z,1.08
2022-10-25T02:25:34.005Z,0.65
2022-10-25T02:27:37.042Z,0.68
2022-10-25T02:29:39.562Z,0.60
2022-10-25T02:31:41.275Z,0.70
2022-10-25T02:33:46.386Z,0.50
2022-10-25T02:36:12.698Z,0.50
2022-10-25T02:38:14.352Z,0.60
2022-10-25T02:40:16.233Z,0.60
2022-10-25T02:42:17.885Z,0.77
2022-10-25T02:44:19.651Z,0.82
2022-10-25T02:46:23.004Z,0.93
2022-10-25T02:48:24.630Z,0.93
2022-10-25T02:50:26.273Z,0.93
2022-10-25T02:52:27.978Z,1.02
2022-10-25T02:54:29.586Z,0.60
2022-10-25T02:56:31.308Z,0.50
2022-10-25T02:58:36.039Z,0.60
2022-10-25T03:00:37.733Z,0.60
2022-10-25T03:02:39.399Z,0.73
2022-10-25T03:04:40.984Z,0.40
2022-10-25T03:06:42.612Z,0.50
2022-10-25T03:08:44.647Z,0.70
2022-10-25T03:10:46.304Z,0.68
2022-10-25T03:12:48.145Z,0.88
2022-10-25T03:14:49.991Z,1.00
2022-10-25T03:16:51.585Z,0.57
2022-10-25T03:18:53.169Z,0.60
2022-10-25T03:21:02.111Z,0.70
2022-10-25T03:23:03.995Z,0.43
2022-10-25T03:25:06.267Z,0.50
2022-10-25T03:27:07.925Z,0.70
2022-10-25T03:29:09.502Z,0.63
2022-10-25T03:31:13.801Z,0.60
2022-10-25T03:33:15.522Z,0.52
2022-10-25T03:35:17.193Z,0.85
2022-10-25T03:37:18.771Z,0.60
2022-10-25T03:39:20.340Z,0.73
2022-10-25T03:41:21.916Z,0.70
2022-10-25T03:45:25.562Z,0.65
2022-10-25T03:47:27.129Z,0.60
2022-10-25T03:49:28.691Z,0.60
2022-10-25T03:51:30.355Z,0.55
2022-10-25T03:53:32.375Z,0.77
2022-10-25T03:55:34.899Z,0.45
2022-10-25T03:57:36.715Z,0.73
2022-10-25T03:59:38.309Z,0.45
2022-10-25T04:01:40.102Z,0.50
2022-10-25T04:03:44.045Z,0.77
2022-10-25T04:05:45.699Z,0.95
2022-10-25T04:07:47.632Z,0.65
2022-10-25T04:09:49.696Z,0.57
2022-10-25T04:11:51.394Z,0.75
2022-10-25T04:13:53.109Z,0.70
2022-10-25T04:15:54.734Z,1.15
2022-10-25T04:17:56.394Z,0.60
2022-10-25T04:19:58.053Z,0.60
2022-10-25T04:22:02.255Z,0.68
2022-10-25T04:24:04.584Z,0.68
2022-10-25T04:26:06.437Z,0.73
2022-10-25T04:28:08.049Z,1.13
2022-10-25T04:30:10.024Z,0.55
2022-10-25T04:32:11.894Z,0.50
2022-10-25T04:34:13.673Z,0.93
2022-10-25T04:36:15.357Z,0.60
2022-10-25T04:38:16.964Z,0.73
2022-10-25T04:40:24.011Z,1.13
2022-10-25T04:42:26.525Z,1.60
2022-10-25T04:44:28.168Z,0.52
2022-10-25T04:46:29.764Z,0.70
2022-10-25T04:48:34.514Z,0.60
2022-10-25T04:50:37.884Z,0.70
2022-10-25T04:52:39.721Z,0.47
2022-10-25T04:54:41.598Z,0.65
2022-10-25T04:56:43.198Z,0.85
2022-10-25T04:58:44.749Z,0.60
2022-10-25T05:00:47.659Z,0.60
2022-10-25T05:02:52.567Z,0.80
2022-10-25T05:04:54.254Z,0.50
2022-10-25T05:06:55.930Z,1.20
2022-10-25T05:08:57.566Z,0.52
2022-10-25T05:10:59.197Z,0.88
2022-10-25T05:13:01.931Z,0.85
2022-10-25T05:15:04.164Z,0.90
2022-10-25T05:17:05.906Z,0.70
2022-10-25T05:19:07.625Z,1.05
2022-10-25T05:21:10.001Z,0.60
2022-10-25T05:23:11.658Z,0.70
2022-10-25T05:25:13.316Z,0.77
2022-10-25T05:27:15.261Z,0.90
2022-10-25T05:29:16.877Z,0.70
2022-10-25T05:31:22.429Z,1.70
2022-10-25T05:33:24.268Z,1.00
2022-10-25T05:35:25.871Z,0.70
2022-10-25T05:37:27.621Z,0.65
2022-10-25T05:39:29.276Z,0.90
2022-10-25T05:41:34.551Z,0.95
2022-10-25T05:43:39.264Z,0.75
2022-10-25T05:45:40.906Z,1.40
2022-10-25T05:47:42.518Z,0.80
2022-10-25T05:49:44.190Z,1.67
2022-10-25T05:51:45.935Z,0.95
2022-10-25T05:53:51.821Z,1.25
2022-10-25T05:55:53.441Z,0.80
2022-10-25T05:57:55.208Z,0.90
2022-10-25T05:59:56.791Z,0.75
2022-10-25T06:01:58.606Z,1.63
2022-10-25T06:04:00.370Z,1.63
2022-10-25T06:06:03.670Z,0.82
2022-10-25T06:08:05.266Z,1.10
2022-10-25T06:10:10.612Z,0.80
2022-10-25T06:12:12.518Z,1.58
2022-10-25T06:14:14.312Z,1.00
2022-10-25T06:16:17.544Z,1.02
2022-10-25T06:18:19.229Z,1.15
2022-10-25T06:20:20.831Z,1.40
2022-10-25T06:22:22.487Z,0.70
2022-10-25T06:24:24.127Z,0.85
2022-10-25T06:26:28.388Z,1.75
2022-10-25T06:28:33.486Z,1.05
2022-10-25T06:30:35.466Z,0.73
2022-10-25T06:32:38.298Z,1.08
2022-10-25T06:34:43.080Z,0.90
2022-10-25T06:36:44.867Z,0.88
2022-10-25T06:38:47.598Z,0.90
2022-10-25T06:40:49.241Z,0.93
2022-10-25T06:42:55.303Z,1.08
2022-10-25T06:44:56.890Z,0.90
2022-10-25T06:49:22.213Z,0.85
2022-10-25T06:51:25.566Z,0.82
2022-10-25T06:53:27.147Z,2.13
2022-10-25T06:55:28.895Z,1.25
2022-10-25T06:57:30.542Z,1.13
2022-10-25T06:59:32.196Z,1.10
2022-10-25T07:01:34.088Z,1.10
2022-10-25T07:03:35.932Z,1.30
2022-10-25T07:05:37.584Z,0.95
2022-10-25T07:07:39.396Z,0.82
2022-10-25T07:09:44.136Z,0.93
2022-10-25T07:11:45.908Z,0.70
2022-10-25T07:13:47.869Z,1.05
2022-10-25T07:15:49.643Z,0.80
2022-10-25T07:17:51.386Z,1.95
2022-10-25T07:19:53.063Z,0.70
2022-10-25T07:21:54.678Z,1.27
2022-10-25T07:23:56.441Z,0.60
2022-10-25T07:25:58.812Z,0.70
2022-10-25T07:28:00.435Z,0.73
2022-10-25T07:30:02.082Z,1.08
2022-10-25T07:32:04.063Z,0.80
2022-10-25T07:34:06.150Z,0.90
2022-10-25T07:36:11.995Z,1.25
2022-10-25T07:38:14.195Z,0.93
2022-10-25T07:40:15.934Z,1.10
2022-10-25T07:42:17.682Z,0.90
2022-10-25T07:44:24.641Z,0.75
2022-10-25T07:46:29.445Z,0.70
2022-10-25T07:48:31.195Z,1.50
2022-10-25T07:50:32.892Z,0.80
2022-10-25T07:52:34.515Z,0.90
2022-10-25T07:54:36.120Z,0.90
2022-10-25T07:56:40.845Z,0.93
2022-10-25T07:58:42.593Z,1.55
2022-10-25T08:00:44.330Z,0.90
2022-10-25T08:02:46.040Z,1.02
2022-10-25T08:04:50.007Z,1.20
2022-10-25T08:06:53.923Z,0.90
2022-10-25T08:08:55.646Z,1.10
2022-10-25T08:10:57.841Z,0.95
2022-10-25T08:12:59.461Z,0.70
2022-10-25T08:15:01.159Z,0.90
2022-10-25T08:17:02.817Z,0.98
2022-10-25T08:19:04.583Z,0.98
2022-10-25T08:21:06.398Z,0.82
2022-10-25T08:23:08.069Z,1.35
2022-10-25T08:25:10.023Z,0.90
2022-10-25T08:27:11.723Z,1.02
2022-10-25T08:29:13.370Z,0.75
2022-10-25T08:31:15.045Z,1.00
2022-10-25T08:33:16.734Z,1.23
2022-10-25T08:35:18.673Z,1.52
2022-10-25T08:37:20.347Z,0.80
2022-10-25T08:39:21.925Z,0.80
2022-10-25T08:41:40.771Z,1.08
2022-10-25T08:43:54.614Z,0.90
2022-10-25T08:46:10.440Z,0.80
2022-10-25T08:48:16.626Z,0.80
2022-10-25T08:50:24.256Z,1.08
2022-10-25T08:52:40.047Z,0.85
2022-10-25T08:54:43.191Z,0.75
2022-10-25T08:56:57.007Z,0.77
2022-10-25T08:59:07.338Z,1.00
2022-10-25T09:01:36.959Z,1.33
2022-10-25T09:06:09.639Z,1.20
2022-10-25T09:08:32.739Z,0.95
2022-10-25T09:10:52.324Z,1.45
2022-10-25T09:13:09.800Z,1.83
2022-10-25T09:15:29.537Z,0.70
2022-10-25T09:18:09.230Z,1.40
2022-10-25T09:20:20.965Z,0.68
2022-10-25T09:22:28.772Z,0.85
2022-10-25T09:24:47.443Z,0.80
2022-10-25T09:26:54.532Z,1.25
2022-10-25T09:29:02.662Z,0.65
2022-10-25T09:31:05.122Z,1.10
2022-10-25T09:33:11.708Z,0.85
2022-10-25T09:35:17.161Z,0.70
2022-10-25T09:37:29.048Z,0.75
2022-10-25T09:39:40.543Z,0.90
2022-10-25T09:41:45.777Z,1.30
2022-10-25T09:43:57.434Z,0.60
2022-10-25T09:46:03.837Z,1.10
2022-10-25T09:48:25.451Z,0.85
2022-10-25T09:50:45.428Z,0.40
2022-10-25T09:53:18.994Z,0.65
2022-10-25T09:55:34.703Z,0.98
2022-10-25T09:57:36.372Z,1.13
2022-10-25T09:59:38.014Z,0.63
2022-10-25T10:01:41.704Z,1.00
2022-10-25T10:03:45.511Z,0.68
2022-10-25T10:06:21.328Z,0.70
2022-10-25T10:08:24.377Z,0.63
2022-10-25T10:10:30.421Z,0.50
2022-10-25T10:13:05.860Z,0.60
2022-10-25T10:15:16.082Z,0.30
2022-10-25T10:17:18.646Z,0.57
2022-10-25T10:19:25.012Z,1.27
2022-10-25T10:21:26.820Z,0.85
2022-10-25T10:23:30.919Z,0.60
2022-10-25T10:25:32.707Z,0.70
2022-10-25T10:27:34.751Z,0.50
2022-10-25T10:29:38.058Z,0.50
2022-10-25T10:31:51.748Z,0.40
2022-10-25T10:33:53.338Z,0.50
2022-10-25T10:35:55.482Z,0.70
2022-10-25T10:38:26.020Z,0.75
2022-10-25T10:40:27.804Z,0.40
2022-10-25T10:42:39.728Z,0.75
2022-10-25T10:44:41.437Z,0.50
2022-10-25T10:46:45.164Z,0.52
2022-10-25T10:48:53.606Z,0.50
2022-10-25T10:50:55.282Z,0.47
2022-10-25T10:53:00.712Z,0.65
2022-10-25T10:55:03.119Z,0.43
2022-10-25T10:57:06.104Z,0.57
2022-10-25T10:59:48.196Z,0.70
2022-10-25T11:01:49.968Z,0.40
2022-10-25T11:04:00.080Z,0.30
2022-10-25T11:06:02.692Z,0.40
2022-10-25T11:08:07.741Z,0.70
2022-10-25T11:10:15.635Z,0.52
2022-10-25T11:12:18.893Z,0.60
2022-10-25T11:14:21.818Z,0.45
2022-10-25T11:16:32.542Z,0.60
2022-10-25T11:18:48.331Z,0.70
2022-10-25T11:21:25.183Z,0.47
2022-10-25T11:23:36.602Z,0.43
2022-10-25T11:25:52.697Z,0.40
2022-10-25T11:28:21.751Z,0.93
2022-10-25T11:30:24.859Z,0.50
2022-10-25T11:35:07.292Z,0.32
2022-10-25T11:37:21.150Z,0.20
2022-10-25T11:39:31.499Z,0.30
2022-10-25T11:42:27.866Z,0.40
2022-10-25T11:44:35.210Z,0.50
2022-10-25T11:47:14.440Z,0.50
2022-10-25T11:49:37.584Z,0.63
2022-10-25T11:51:48.040Z,0.40
2022-10-25T11:54:07.452Z,0.30
2022-10-25T11:56:18.067Z,0.30
2022-10-25T11:58:44.484Z,0.40
2022-10-25T12:01:15.282Z,0.30
2022-10-25T12:03:40.126Z,0.20
2022-10-25T12:06:05.023Z,0.32
2022-10-25T12:08:29.118Z,0.30
2022-10-25T12:10:40.608Z,0.60
2022-10-25T12:12:44.924Z,0.65
2022-10-25T12:14:53.173Z,0.45
2022-10-25T12:16:56.427Z,0.40
2022-10-25T12:19:12.861Z,0.40
2022-10-25T12:21:31.023Z,0.30
2022-10-25T12:23:39.851Z,0.40
2022-10-25T12:25:47.188Z,0.30
2022-10-25T12:27:55.836Z,0.30
2022-10-25T12:30:07.216Z,0.40
2022-10-25T12:32:19.295Z,0.30
2022-10-25T12:34:24.527Z,0.40
2022-10-25T12:36:37.798Z,0.45
2022-10-25T12:38:41.277Z,0.40
2022-10-25T12:40:45.300Z,0.45
2022-10-25T12:43:09.223Z,0.40
2022-10-25T12:45:26.193Z,0.32
2022-10-25T12:47:48.956Z,0.30
2022-10-25T12:50:05.892Z,0.50
2022-10-25T12:52:10.431Z,0.38
2022-10-25T12:54:42.342Z,0.57
2022-10-25T12:57:05.373Z,0.60
2022-10-25T12:59:13.667Z,0.60
2022-10-25T13:01:53.839Z,0.40
2022-10-25T13:04:02.792Z,0.43
2022-10-25T13:06:39.239Z,0.57
2022-10-25T13:08:41.186Z,0.40
2022-10-25T13:10:45.720Z,0.50
2022-10-25T13:13:08.066Z,0.80
2022-10-25T13:15:18.170Z,0.50
2022-10-25T13:17:19.781Z,0.70
2022-10-25T13:19:42.726Z,0.38
2022-10-25T13:21:53.424Z,0.50
2022-10-25T13:23:59.300Z,0.30
2022-10-25T13:26:04.815Z,0.40
2022-10-25T13:28:15.580Z,0.43
2022-10-25T13:30:26.423Z,0.38
2022-10-25T13:32:35.787Z,0.50
2022-10-25T13:34:37.778Z,0.35
2022-10-25T13:36:55.804Z,0.45
2022-10-25T13:39:05.259Z,0.77
2022-10-25T13:41:19.118Z,0.60
2022-10-25T13:43:21.955Z,0.80
2022-10-25T13:45:39.807Z,0.50
2022-10-25T13:47:42.746Z,0.28
2022-10-25T13:49:47.435Z,0.30
2022-10-25T13:51:49.083Z,0.30
2022-10-25T13:53:53.994Z,0.60
2022-10-25T13:56:18.502Z,0.50
2022-10-25T13:58:31.599Z,0.40
2022-10-25T14:00:39.635Z,0.20
2022-10-25T14:03:06.006Z,0.38
2022-10-25T14:05:10.846Z,0.47
2022-10-25T14:07:41.016Z,0.30
2022-10-25T14:09:44.095Z,0.38
2022-10-25T14:11:56.304Z,0.55
2022-10-25T14:13:57.844Z,0.50
2022-10-25T14:16:02.455Z,0.50
2022-10-25T14:18:18.296Z,0.40
2022-10-25T14:20:31.005Z,0.40
2022-10-25T14:22:42.094Z,0.50
2022-10-25T14:24:45.144Z,0.40
2022-10-25T14:26:58.048Z,0.35
2022-10-25T14:29:17.597Z,0.55
2022-10-25T14:31:21.667Z,0.40
2022-10-25T14:33:43.510Z,0.30
2022-10-25T14:35:50.351Z,0.28
2022-10-25T14:37:52.180Z,0.40
2022-10-25T14:39:54.230Z,0.40
2022-10-25T14:42:01.169Z,0.63
2022-10-25T14:44:03.641Z,0.40
2022-10-25T14:46:16.016Z,0.40
2022-10-25T14:48:20.195Z,0.70
2022-10-25T14:50:24.444Z,0.30
2022-10-25T14:52:30.512Z,0.57
2022-10-25T14:54:36.095Z,0.40
2022-10-25T14:56:46.575Z,0.45
2022-10-25T14:58:48.244Z,0.40
2022-10-25T15:01:03.971Z,0.30
2022-10-25T15:03:06.280Z,0.30
2022-10-25T15:05:16.076Z,0.38
2022-10-25T15:07:31.402Z,0.45
2022-10-25T15:09:49.220Z,0.40
2022-10-25T15:12:12.830Z,0.50
2022-10-25T15:14:16.703Z,0.35
2022-10-25T15:16:36.417Z,0.60
2022-10-25T15:18:38.744Z,0.45
2022-10-25T15:20:40.351Z,0.40
2022-10-25T15:22:45.761Z,0.60
2022-10-25T15:24:49.052Z,0.30
2022-10-25T15:27:05.882Z,0.40
2022-10-25T15:29:07.483Z,0.40
2022-10-25T15:31:14.753Z,0.28
2022-10-25T15:33:32.289Z,0.45
2022-10-25T15:35:46.551Z,0.50
2022-10-25T15:37:48.177Z,0.57
2022-10-25T15:39:52.032Z,0.40
2022-10-25T15:41:53.887Z,0.20
2022-10-25T15:43:55.593Z,0.77
2022-10-25T15:45:57.265Z,0.40
2022-10-25T15:47:59.068Z,0.40
2022-10-25T15:50:02.611Z,0.40
2022-10-25T15:52:04.467Z,0.73
2022-10-25T15:54:06.259Z,0.88
2022-10-25T15:56:11.073Z,0.52
2022-10-25T15:58:12.711Z,0.60
2022-10-25T16:00:22.853Z,0.65
2022-10-25T16:02:31.951Z,0.98
2022-10-25T16:04:33.564Z,0.60
2022-10-25T16:06:35.184Z,0.70
2022-10-25T16:08:36.979Z,0.60
2022-10-25T16:10:38.859Z,0.52
2022-10-25T16:12:40.796Z,0.50
2022-10-25T16:14:42.457Z,0.60
2022-10-25T16:16:44.155Z,0.70
2022-10-25T16:18:45.834Z,1.30
2022-10-25T16:20:47.442Z,2.05
2022-10-25T16:22:49.793Z,2.83
2022-10-25T16:24:51.564Z,1.90
2022-10-25T16:26:53.256Z,2.47
2022-10-25T16:28:54.815Z,2.08
2022-10-25T16:30:56.477Z,1.55
2022-10-25T16:32:58.100Z,1.20
2022-10-25T16:34:59.708Z,1.00
2022-10-25T16:37:01.307Z,1.10
2022-10-25T16:39:04.339Z,1.20
2022-10-25T16:41:06.083Z,1.33
2022-10-25T16:43:11.238Z,1.88
2022-10-25T16:45:31.046Z,2.40
2022-10-25T16:47:32.675Z,1.80
2022-10-25T16:49:34.274Z,1.30
2022-10-25T16:51:36.164Z,1.48
2022-10-25T16:53:38.969Z,1.30
2022-10-25T16:55:40.652Z,0.80
2022-10-25T16:57:42.357Z,1.73
2022-10-25T16:59:44.106Z,1.42
2022-10-25T17:01:54.120Z,1.85
2022-10-25T17:03:55.978Z,1.00
2022-10-25T17:05:57.674Z,1.00
2022-10-25T17:07:59.440Z,1.35
2022-10-25T17:10:01.057Z,1.20
2022-10-25T17:12:02.998Z,1.30
2022-10-25T17:14:05.153Z,1.20
2022-10-25T17:16:14.923Z,1.00
2022-10-25T17:18:20.942Z,1.98
2022-10-25T17:20:22.663Z,1.73
2022-10-25T17:22:25.321Z,1.35
2022-10-25T17:24:26.976Z,1.27
2022-10-25T17:26:28.712Z,1.45
2022-10-25T17:28:31.387Z,1.77
2022-10-25T17:30:33.039Z,2.40
2022-10-25T17:32:34.703Z,2.03
2022-10-25T17:34:36.751Z,2.33
2022-10-25T17:36:38.434Z,1.83
2022-10-25T17:38:40.790Z,2.90
2022-10-25T17:40:44.166Z,2.88
2022-10-25T17:42:46.094Z,3.10
2022-10-25T17:44:47.878Z,4.32
2022-10-25T17:46:49.464Z,3.55
2022-10-25T17:48:55.113Z,3.20
2022-10-25T17:51:03.894Z,3.10
2022-10-25T17:53:05.484Z,2.83
2022-10-25T17:55:10.280Z,2.35
2022-10-25T17:57:11.883Z,3.17
2022-10-25T17:59:13.486Z,4.90
2022-10-25T18:01:18.224Z,2.17
2022-10-25T18:03:20.050Z,1.95
2022-10-25T18:05:21.958Z,1.88
2022-10-25T18:07:23.703Z,1.98
2022-10-25T18:09:25.411Z,2.10
2022-10-25T18:11:28.443Z,2.05
2022-10-25T18:13:30.324Z,2.10
2022-10-25T18:15:33.407Z,2.45
2022-10-25T18:17:35.054Z,2.92
2022-10-25T18:19:36.908Z,3.13
2022-10-25T18:21:38.489Z,2.72
2022-10-25T18:23:40.897Z,2.80
2022-10-25T18:25:52.488Z,2.33
2022-10-25T18:27:54.179Z,2.60
2022-10-25T18:29:58.879Z,2.28
2022-10-25T18:32:00.636Z,2.45
2022-10-25T18:34:04.765Z,1.98
2022-10-25T18:36:09.508Z,1.65
2022-10-25T18:38:14.542Z,1.50
2022-10-25T18:40:17.787Z,1.67
2022-10-25T18:42:19.447Z,1.50
2022-10-25T18:44:21.375Z,1.63
2022-10-25T18:46:23.914Z,1.83
2022-10-25T18:48:26.241Z,1.85
2022-10-25T18:50:28.073Z,1.77
2022-10-25T18:52:29.733Z,1.60
2022-10-25T18:54:31.487Z,2.15
2022-10-25T18:56:33.128Z,1.23
2022-10-25T18:58:34.760Z,1.60
2022-10-25T19:00:38.999Z,1.30
2022-10-25T19:02:40.745Z,1.70
2022-10-25T19:04:42.577Z,1.50
2022-10-25T19:06:44.440Z,1.52
2022-10-25T19:08:46.124Z,1.60
2022-10-25T19:10:50.076Z,1.40
2022-10-25T19:12:51.758Z,1.45
2022-10-25T19:14:53.407Z,1.17
2022-10-25T19:16:55.052Z,1.42
2022-10-25T19:18:56.843Z,1.73
2022-10-25T19:21:03.101Z,2.45
2022-10-25T19:23:04.738Z,1.45
2022-10-25T19:25:06.600Z,1.45
2022-10-25T19:27:08.283Z,1.55
2022-10-25T19:29:09.998Z,1.70
2022-10-25T19:31:17.170Z,1.80
2022-10-25T19:33:19.032Z,2.00
2022-10-25T19:35:21.896Z,1.70
2022-10-25T19:37:23.606Z,1.55
2022-10-25T19:39:26.767Z,3.38
2022-10-25T19:41:28.426Z,2.75
2022-10-25T19:43:30.394Z,2.42
2022-10-25T19:45:32.035Z,2.50
2022-10-25T19:47:35.888Z,2.40
2022-10-25T19:49:37.518Z,2.40
2022-10-25T19:51:39.160Z,2.67
2022-10-25T19:53:41.129Z,1.50
2022-10-25T19:55:42.927Z,1.90
2022-10-25T19:57:44.636Z,1.55
2022-10-25T19:59:46.310Z,2.30
2022-10-25T20:01:49.243Z,1.70
2022-10-25T20:03:52.706Z,1.60
2022-10-25T20:06:02.477Z,1.35
2022-10-25T20:08:05.306Z,2.05
2022-10-25T20:10:07.339Z,1.63
2022-10-25T20:12:09.211Z,2.90
2022-10-25T20:14:10.960Z,2.65
2022-10-25T20:16:14.126Z,1.98
2022-10-25T20:18:15.808Z,2.63
2022-10-25T20:20:18.008Z,3.03
2022-10-25T20:22:19.704Z,2.58
2022-10-25T20:24:21.380Z,2.38
2022-10-25T20:26:28.249Z,2.72
2022-10-25T20:28:30.189Z,3.00
2022-10-25T20:30:34.829Z,2.70
2022-10-25T20:32:36.670Z,2.92
2022-10-25T20:34:38.584Z,1.65
2022-10-25T20:36:40.358Z,2.20
2022-10-25T20:38:42.381Z,2.22
2022-10-25T20:40:45.376Z,2.38
2022-10-25T20:42:47.571Z,2.20
2022-10-25T20:44:49.430Z,1.98
2022-10-25T20:46:54.593Z,2.00
2022-10-25T20:48:57.964Z,2.30
2022-10-25T20:51:04.114Z,2.30
2022-10-25T20:53:10.775Z,1.88
2022-10-25T20:55:12.798Z,2.63
2022-10-25T20:57:14.489Z,2.22
2022-10-25T20:59:16.109Z,2.00
2022-10-25T21:01:18.085Z,1.88
2022-10-25T21:03:20.225Z,1.73
2022-10-25T21:05:21.819Z,1.88
2022-10-25T21:07:23.467Z,2.00
2022-10-25T21:09:25.368Z,2.42
2022-10-25T21:11:29.122Z,2.00
2022-10-25T21:13:32.250Z,2.55
2022-10-25T21:15:33.985Z,2.15
2022-10-25T21:17:35.762Z,2.58
2022-10-25T21:19:37.578Z,2.70
2022-10-25T21:21:39.202Z,2.90
2022-10-25T21:23:40.890Z,2.55
2022-10-25T21:25:42.514Z,3.20
2022-10-25T21:27:44.191Z,2.70
2022-10-25T21:29:45.894Z,2.28
2022-10-25T21:31:50.288Z,2.70
2022-10-25T21:33:53.996Z,2.90
2022-10-25T21:36:09.214Z,2.90
2022-10-25T21:38:10.866Z,2.72
2022-10-25T21:40:12.710Z,2.70
2022-10-25T21:42:14.990Z,2.10
2022-10-25T21:44:16.861Z,2.35
2022-10-25T21:46:20.369Z,2.35
2022-10-25T21:48:22.109Z,2.08
2022-10-25T21:50:23.870Z,2.80
2022-10-25T21:52:25.506Z,4.03
2022-10-25T21:54:27.177Z,2.10
2022-10-25T21:56:31.427Z,2.90
2022-10-25T21:58:33.760Z,2.03
2022-10-25T22:00:35.448Z,2.28
2022-10-25T22:02:37.322Z,2.50
2022-10-25T22:04:41.905Z,2.70
2022-10-25T22:06:43.602Z,1.90
2022-10-25T22:08:45.623Z,1.88
2022-10-25T22:11:20.435Z,1.60
2022-10-25T22:13:22.058Z,1.65
2022-10-25T22:15:23.826Z,1.50
2022-10-25T22:17:25.574Z,1.73
2022-10-25T22:19:27.339Z,1.75
2022-10-25T22:21:32.672Z,1.58
2022-10-25T22:23:34.709Z,2.05
2022-10-25T22:25:36.458Z,2.35
2022-10-25T22:27:38.184Z,1.83
2022-10-25T22:29:39.897Z,2.20
2022-10-25T22:31:41.643Z,1.88
2022-10-25T22:33:44.509Z,1.85
2022-10-25T22:35:46.152Z,2.20
2022-10-25T22:37:48.139Z,1.50
2022-10-25T22:39:49.950Z,2.15
2022-10-25T22:41:53.589Z,1.60
2022-10-25T22:43:55.519Z,1.25
2022-10-25T22:46:00.709Z,1.70
2022-10-25T22:48:02.337Z,1.42
2022-10-25T22:50:04.142Z,1.38
2022-10-25T22:52:05.769Z,1.27
2022-10-25T22:54:07.729Z,1.50
2022-10-25T22:56:13.681Z,1.27
2022-10-25T22:58:15.292Z,1.30
2022-10-25T23:00:17.198Z,1.48
2022-10-25T23:02:18.830Z,1.35
2022-10-25T23:04:20.601Z,1.42
2022-10-25T23:06:27.636Z,1.35
2022-10-25T23:08:29.693Z,2.20
2022-10-25T23:10:31.313Z,1.92
2022-10-25T23:12:32.894Z,1.80
2022-10-25T23:14:34.562Z,1.60
2022-10-25T23:16:36.315Z,1.10
2022-10-25T23:18:38.563Z,1.52
2022-10-25T23:20:48.712Z,1.30
2022-10-25T23:22:50.519Z,1.45
2022-10-25T23:24:52.463Z,1.58
2022-10-25T23:26:54.237Z,1.30
2022-10-25T23:28:56.514Z,1.38
2022-10-25T23:31:06.041Z,1.30
2022-10-25T23:33:12.453Z,1.40
2022-10-25T23:35:14.154Z,1.65
2022-10-25T23:37:15.802Z,1.92
2022-10-25T23:39:17.485Z,1.10
2022-10-25T23:41:20.436Z,1.75
2022-10-25T23:43:22.089Z,1.35
2022-10-25T23:45:24.103Z,1.50
2022-10-25T23:47:25.765Z,1.70
2022-10-25T23:49:27.403Z,1.20
2022-10-25T23:51:29.060Z,2.03
2022-10-25T23:53:31.174Z,1.73
2022-10-25T23:55:32.818Z,1.17
2022-10-25T23:57:34.434Z,1.25
2022-10-25T23:59:36.053Z,1.85
